This is the latest recevied weather packets stored in our database for station/object IN3MWE-10. If no packets are shown the sender has not sent any weather packets the latest 10 day(s).
| Time | Temp. | Humidity | Pressure | Rain* | Wind** | Luminosity | Snow |
|---|---|---|---|---|---|---|---|
| 1787753121 | 38.89° C | 24% | 979 hPa | - | - | - | - |
| 1787752221 | 36.67° C | 30% | 979.4 hPa | - | - | - | - |
| 1787751320 | 37.22° C | 28% | 979.6 hPa | - | - | - | - |
| 1787750420 | 36.11° C | 30% | 979.6 hPa | - | - | - | - |
| 1787749520 | 37.78° C | 26% | 979.7 hPa | - | - | - | - |
| 1787748620 | 40° C | 23% | 979.8 hPa | - | - | - | - |
| 1787747720 | 38.33° C | 25% | 979.8 hPa | - | - | - | - |
| 1787746820 | 37.78° C | 25% | 980 hPa | - | - | - | - |
| 1787745920 | 38.33° C | 24% | 980.2 hPa | - | - | - | - |
| 1787745019 | 39.44° C | 24% | 980.1 hPa | - | - | - | - |
| 1787744119 | 36.67° C | 28% | 980.3 hPa | - | - | - | - |
| 1787743219 | 36.11° C | 28% | 980.5 hPa | - | - | - | - |
| 1787742319 | 36.67° C | 28% | 980.8 hPa | - | - | - | - |
| 1787741419 | 35° C | 30% | 980.9 hPa | - | - | - | - |
| 1787740519 | 32.78° C | 34% | 981.3 hPa | - | - | - | - |
| 1787739619 | 32.78° C | 34% | 981.6 hPa | - | - | - | - |
| 1787738718 | 32.22° C | 35% | 981.8 hPa | - | - | - | - |
| 1787737818 | 32.78° C | 36% | 981.9 hPa | - | - | - | - |
| 1787736918 | 32.22° C | 38% | 982.2 hPa | - | - | - | - |
| 1787736018 | 29.44° C | 42% | 982.5 hPa | - | - | - | - |
| 1787735118 | 30.56° C | 43% | 982.6 hPa | - | - | - | - |
| 1787734218 | 28.89° C | 44% | 982.7 hPa | - | - | - | - |
| 1787733318 | 27.78° C | 46% | 982.8 hPa | - | - | - | - |
| 1787732418 | 28.89° C | 45% | 982.8 hPa | - | - | - | - |
| 1787731517 | 27.22° C | 49% | 982.9 hPa | - | - | - | - |
* Rain since midnight (hover to see other rain measurements)
** Current wind speed in m/s (hover to see current wind gust speed)